createdAt,value
2022-07-26T00:01:16.510Z,6.00
2022-07-26T00:03:51.892Z,4.90
2022-07-26T00:06:26.782Z,6.40
2022-07-26T00:09:02.823Z,4.70
2022-07-26T00:11:37.342Z,5.20
2022-07-26T00:14:12.696Z,6.30
2022-07-26T00:16:46.845Z,8.90
2022-07-26T00:19:20.972Z,4.10
2022-07-26T00:22:08.715Z,10.20
2022-07-26T00:24:42.841Z,4.80
2022-07-26T00:27:17.111Z,6.50
2022-07-26T00:29:51.246Z,5.40
2022-07-26T00:32:25.331Z,6.40
2022-07-26T00:34:59.368Z,4.80
2022-07-26T00:37:33.706Z,5.30
2022-07-26T00:40:11.090Z,7.20
2022-07-26T00:42:45.848Z,6.90
2022-07-26T00:45:20.594Z,5.30
2022-07-26T00:47:54.895Z,6.40
2022-07-26T00:50:28.817Z,4.90
2022-07-26T00:53:03.496Z,5.40
2022-07-26T00:55:37.763Z,6.10
2022-07-26T00:58:13.567Z,5.20
2022-07-26T01:00:49.575Z,5.90
2022-07-26T01:03:23.486Z,4.90
2022-07-26T01:06:03.757Z,5.00
2022-07-26T01:08:38.182Z,4.80
2022-07-26T01:11:14.419Z,7.50
2022-07-26T01:13:52.676Z,7.40
2022-07-26T01:16:26.917Z,5.80
2022-07-26T01:19:00.897Z,6.80
2022-07-26T01:21:35.601Z,6.50
2022-07-26T01:24:10.998Z,4.60
2022-07-26T01:26:45.243Z,10.70
2022-07-26T01:29:19.693Z,6.40
2022-07-26T01:31:54.837Z,7.30
2022-07-26T01:34:29.052Z,5.50
2022-07-26T01:37:03.354Z,5.10
2022-07-26T01:39:37.256Z,7.00
2022-07-26T01:42:11.288Z,6.50
2022-07-26T01:44:45.775Z,7.20
2022-07-26T01:47:19.804Z,5.60
2022-07-26T01:49:54.043Z,5.40
2022-07-26T01:52:29.516Z,4.70
2022-07-26T01:55:03.604Z,6.90
2022-07-26T01:57:37.684Z,4.50
2022-07-26T02:00:14.905Z,4.30
2022-07-26T02:02:48.968Z,5.00
2022-07-26T02:05:23.003Z,3.90
2022-07-26T02:07:57.320Z,6.00
2022-07-26T02:10:45.902Z,5.10
2022-07-26T02:13:21.522Z,6.30
2022-07-26T02:15:55.577Z,4.20
2022-07-26T02:18:31.302Z,4.60
2022-07-26T02:21:07.471Z,4.40
2022-07-26T02:23:42.346Z,7.70
2022-07-26T02:26:16.614Z,5.70
2022-07-26T02:28:50.502Z,5.00
2022-07-26T02:31:25.351Z,7.20
2022-07-26T02:34:07.093Z,4.80
2022-07-26T02:36:41.436Z,4.70
2022-07-26T02:39:15.698Z,6.70
2022-07-26T02:41:50.339Z,5.70
2022-07-26T02:44:25.248Z,6.50
2022-07-26T02:46:59.748Z,6.50
2022-07-26T02:49:33.654Z,5.80
2022-07-26T02:52:08.386Z,5.50
2022-07-26T02:54:42.220Z,7.60
2022-07-26T02:57:16.286Z,7.30
2022-07-26T02:59:50.257Z,6.10
2022-07-26T03:02:24.266Z,10.10
2022-07-26T03:04:58.090Z,5.00
2022-07-26T03:07:32.407Z,10.50
2022-07-26T03:10:07.724Z,5.20
2022-07-26T03:12:41.705Z,6.20
2022-07-26T03:15:16.455Z,8.30
2022-07-26T03:17:50.629Z,6.00
2022-07-26T03:20:25.399Z,6.30
2022-07-26T03:22:59.571Z,11.20
2022-07-26T03:25:33.535Z,7.70
2022-07-26T03:28:16.008Z,9.60
2022-07-26T03:30:52.947Z,5.70
2022-07-26T03:33:27.131Z,8.20
2022-07-26T03:36:01.331Z,8.80
2022-07-26T03:38:36.453Z,7.50
2022-07-26T03:41:13.652Z,7.50
2022-07-26T03:43:47.931Z,6.40
2022-07-26T03:46:22.033Z,9.40
2022-07-26T03:48:56.567Z,11.00
2022-07-26T03:51:30.955Z,7.40
2022-07-26T03:54:05.515Z,8.90
2022-07-26T03:56:39.724Z,8.70
2022-07-26T03:59:15.505Z,10.20
2022-07-26T04:01:50.937Z,9.40
2022-07-26T04:04:25.574Z,9.20
2022-07-26T04:07:03.219Z,10.10
2022-07-26T04:09:38.313Z,13.00
2022-07-26T04:12:12.775Z,12.70
2022-07-26T04:14:47.237Z,12.20
2022-07-26T04:17:21.331Z,12.40
2022-07-26T04:19:55.240Z,11.80
2022-07-26T04:22:29.451Z,11.20
2022-07-26T04:25:03.373Z,13.30
2022-07-26T04:27:41.602Z,12.90
2022-07-26T04:30:19.545Z,13.80
2022-07-26T04:32:53.649Z,12.30
2022-07-26T04:35:27.961Z,12.00
2022-07-26T04:38:02.120Z,11.30
2022-07-26T04:40:40.503Z,12.00
2022-07-26T04:43:16.219Z,11.80
2022-07-26T04:45:51.842Z,11.50
2022-07-26T04:48:26.855Z,11.20
2022-07-26T04:51:01.831Z,10.70
2022-07-26T04:53:35.806Z,12.50
2022-07-26T04:56:11.245Z,18.10
2022-07-26T04:58:45.080Z,13.10
2022-07-26T05:01:19.039Z,10.40
2022-07-26T05:03:53.017Z,10.80
2022-07-26T05:06:26.954Z,9.40
2022-07-26T05:09:01.169Z,12.10
2022-07-26T05:11:35.607Z,9.30
2022-07-26T05:14:10.220Z,10.30
2022-07-26T05:16:45.064Z,11.00
2022-07-26T05:19:20.717Z,11.10
2022-07-26T05:21:54.637Z,9.30
2022-07-26T05:24:28.655Z,10.20
2022-07-26T05:27:02.473Z,11.30
2022-07-26T05:29:36.569Z,9.70
2022-07-26T05:32:11.244Z,8.80
2022-07-26T05:34:45.314Z,8.10
2022-07-26T05:37:20.310Z,8.30
2022-07-26T05:39:54.607Z,6.90
2022-07-26T05:42:28.859Z,7.50
2022-07-26T05:45:02.797Z,6.50
2022-07-26T05:47:36.906Z,8.80
2022-07-26T05:50:12.798Z,6.40
2022-07-26T05:52:46.958Z,7.10
2022-07-26T05:55:21.137Z,6.70
2022-07-26T05:57:55.673Z,6.20
2022-07-26T06:00:29.768Z,6.30
2022-07-26T06:03:22.105Z,5.60
2022-07-26T06:05:58.741Z,5.40
2022-07-26T06:08:32.903Z,5.00
2022-07-26T06:11:07.419Z,6.40
2022-07-26T06:13:42.136Z,6.80
2022-07-26T06:16:16.480Z,5.00
2022-07-26T06:18:50.352Z,7.30
2022-07-26T06:21:24.621Z,6.10
2022-07-26T06:23:59.360Z,5.60
2022-07-26T06:26:34.408Z,5.20
2022-07-26T06:29:10.521Z,6.00
2022-07-26T06:31:44.759Z,4.70
2022-07-26T06:34:19.426Z,4.80
2022-07-26T06:36:55.361Z,5.00
2022-07-26T06:39:30.761Z,6.00
2022-07-26T06:42:05.483Z,4.50
2022-07-26T06:44:42.784Z,4.20
2022-07-26T06:47:20.123Z,5.00
2022-07-26T06:49:54.451Z,6.30
2022-07-26T06:52:28.900Z,5.90
2022-07-26T06:55:07.316Z,4.50
2022-07-26T06:57:49.797Z,5.70
2022-07-26T07:00:25.576Z,4.10
2022-07-26T07:03:00.858Z,6.20
2022-07-26T07:05:37.949Z,5.50
2022-07-26T07:08:13.111Z,4.10
2022-07-26T07:10:50.961Z,4.90
2022-07-26T07:13:36.399Z,6.90
2022-07-26T07:16:12.215Z,5.50
2022-07-26T07:18:47.238Z,5.50
2022-07-26T07:21:22.300Z,4.80
2022-07-26T07:23:56.662Z,5.80
2022-07-26T07:26:31.293Z,5.20
2022-07-26T07:29:07.142Z,6.30
2022-07-26T07:31:48.968Z,5.90
2022-07-26T07:34:24.563Z,5.10
2022-07-26T07:36:59.429Z,5.60
2022-07-26T07:39:38.804Z,6.70
2022-07-26T07:42:14.346Z,6.50
2022-07-26T07:44:50.429Z,6.80
2022-07-26T07:47:27.288Z,4.90
2022-07-26T07:50:01.684Z,4.60
2022-07-26T07:52:36.445Z,6.50
2022-07-26T07:55:40.602Z,7.80
2022-07-26T07:58:08.777Z,6.60
2022-07-26T08:00:44.729Z,7.60
2022-07-26T08:03:19.601Z,5.20
2022-07-26T08:05:53.847Z,5.70
2022-07-26T08:08:29.154Z,4.60
2022-07-26T08:11:03.897Z,5.60
2022-07-26T08:13:47.522Z,5.10
2022-07-26T08:16:22.241Z,6.10
2022-07-26T08:19:08.080Z,7.00
2022-07-26T08:21:46.719Z,6.50
2022-07-26T08:24:21.597Z,6.60
2022-07-26T08:26:56.109Z,6.10
2022-07-26T08:29:30.253Z,6.10
2022-07-26T08:32:05.930Z,7.20
2022-07-26T08:34:40.905Z,7.40
2022-07-26T08:37:18.172Z,5.40
2022-07-26T08:39:53.922Z,5.40
2022-07-26T08:42:29.397Z,6.30
2022-07-26T08:45:05.348Z,7.00
2022-07-26T08:48:00.838Z,5.00
2022-07-26T08:50:39.619Z,4.70
2022-07-26T08:53:16.800Z,7.30
2022-07-26T08:56:06.470Z,5.40
2022-07-26T08:58:43.612Z,6.60
2022-07-26T09:01:18.911Z,6.80
2022-07-26T09:03:53.786Z,5.20
2022-07-26T09:06:29.998Z,5.00
2022-07-26T09:09:15.229Z,8.30
2022-07-26T09:11:49.501Z,4.10
2022-07-26T09:14:24.515Z,6.00
2022-07-26T09:17:06.793Z,7.10
2022-07-26T09:19:41.751Z,5.60
2022-07-26T09:22:20.368Z,5.90
2022-07-26T09:24:55.190Z,4.60
2022-07-26T09:27:40.268Z,4.90
2022-07-26T09:30:17.846Z,4.50
2022-07-26T09:33:08.864Z,5.00
2022-07-26T09:35:50.885Z,4.60
2022-07-26T09:38:28.846Z,6.00
2022-07-26T09:41:03.792Z,5.80
2022-07-26T09:43:43.732Z,6.10
2022-07-26T09:46:18.920Z,6.10
2022-07-26T09:49:09.842Z,5.90
2022-07-26T09:51:49.842Z,6.60
2022-07-26T09:54:38.738Z,6.00
2022-07-26T09:57:14.087Z,6.50
2022-07-26T09:59:49.578Z,6.50
2022-07-26T10:02:26.445Z,4.70
2022-07-26T10:05:02.095Z,4.10
2022-07-26T10:07:38.392Z,7.80
2022-07-26T10:10:22.516Z,5.30
2022-07-26T10:13:03.095Z,5.40
2022-07-26T10:15:48.721Z,7.40
2022-07-26T10:18:50.468Z,4.60
2022-07-26T10:21:29.917Z,5.60
2022-07-26T10:24:08.686Z,5.90
2022-07-26T10:26:46.760Z,7.70
2022-07-26T10:29:30.319Z,5.90
2022-07-26T10:32:25.012Z,8.20
2022-07-26T10:34:59.784Z,5.60
2022-07-26T10:37:34.094Z,7.20
2022-07-26T10:40:30.452Z,8.10
2022-07-26T10:44:05.499Z,6.20
2022-07-26T10:46:58.396Z,3.60
2022-07-26T10:49:39.911Z,9.30
2022-07-26T10:52:23.686Z,11.30
2022-07-26T10:55:23.870Z,5.20
2022-07-26T10:57:58.302Z,2.80
2022-07-26T11:00:37.194Z,5.30
2022-07-26T11:03:15.001Z,6.40
2022-07-26T11:05:51.097Z,5.60
2022-07-26T11:08:34.229Z,4.20
2022-07-26T11:11:10.347Z,4.80
2022-07-26T11:13:45.016Z,3.20
2022-07-26T11:16:19.344Z,4.30
2022-07-26T11:18:53.730Z,4.30
2022-07-26T11:21:28.653Z,6.90
2022-07-26T11:24:07.661Z,5.20
2022-07-26T11:26:48.145Z,5.10
2022-07-26T11:29:37.907Z,6.90
2022-07-26T11:32:25.410Z,4.60
2022-07-26T11:35:06.922Z,5.10
2022-07-26T11:37:53.175Z,5.70
2022-07-26T11:40:47.835Z,4.30
2022-07-26T11:43:25.528Z,6.20
2022-07-26T11:45:59.874Z,3.70
2022-07-26T11:48:34.602Z,5.20
2022-07-26T11:51:19.505Z,5.50
2022-07-26T11:53:59.884Z,4.10
2022-07-26T11:56:37.443Z,12.10
2022-07-26T11:59:17.345Z,5.80
2022-07-26T12:01:58.700Z,7.90
2022-07-26T12:04:38.369Z,5.70
2022-07-26T12:07:18.882Z,5.00
2022-07-26T12:09:55.875Z,4.10
2022-07-26T12:12:32.186Z,4.30
2022-07-26T12:15:09.097Z,4.40
2022-07-26T12:18:01.000Z,5.60
2022-07-26T12:20:36.130Z,5.50
2022-07-26T12:23:12.871Z,3.80
2022-07-26T12:25:49.358Z,5.10
2022-07-26T12:28:45.530Z,5.50
2022-07-26T12:31:34.544Z,8.90
2022-07-26T12:34:11.494Z,3.70
2022-07-26T12:36:47.541Z,3.90
2022-07-26T12:39:26.054Z,4.40
2022-07-26T12:42:03.255Z,4.70
2022-07-26T12:44:38.663Z,3.90
2022-07-26T12:47:13.191Z,6.00
2022-07-26T12:49:48.049Z,5.80
2022-07-26T12:52:25.860Z,5.80
2022-07-26T12:55:00.466Z,6.30
2022-07-26T12:57:36.895Z,4.80
2022-07-26T13:00:16.199Z,4.60
2022-07-26T13:02:52.506Z,4.30
2022-07-26T13:05:27.027Z,5.20
2022-07-26T13:08:05.052Z,5.50
2022-07-26T13:10:39.937Z,3.80
2022-07-26T13:13:14.728Z,6.20
2022-07-26T13:15:50.266Z,4.90
2022-07-26T13:18:24.744Z,4.10
2022-07-26T13:20:59.789Z,7.40
2022-07-26T13:23:35.863Z,4.60
2022-07-26T13:26:11.128Z,4.70
2022-07-26T13:28:49.660Z,5.20
2022-07-26T13:31:23.956Z,5.00
2022-07-26T13:33:57.953Z,3.80
2022-07-26T13:36:32.626Z,4.80
2022-07-26T13:39:07.403Z,4.70
2022-07-26T13:41:41.630Z,5.30
2022-07-26T13:44:15.985Z,4.70
2022-07-26T13:46:50.404Z,7.30
2022-07-26T13:49:24.573Z,6.70
2022-07-26T13:51:59.446Z,5.10
2022-07-26T13:54:36.874Z,4.90
2022-07-26T13:57:11.327Z,5.90
2022-07-26T13:59:45.442Z,6.60
2022-07-26T14:02:19.983Z,5.90
2022-07-26T14:04:53.913Z,5.40
2022-07-26T14:07:28.132Z,5.20
2022-07-26T14:10:02.218Z,3.80
2022-07-26T14:12:38.304Z,5.10
2022-07-26T14:15:18.241Z,7.50
2022-07-26T14:17:56.215Z,7.00
2022-07-26T14:20:31.191Z,4.70
2022-07-26T14:23:05.467Z,4.60
2022-07-26T14:25:39.917Z,7.20
2022-07-26T14:28:14.139Z,4.50
2022-07-26T14:30:51.813Z,7.30
2022-07-26T14:33:26.863Z,5.60
2022-07-26T14:36:01.127Z,4.60
2022-07-26T14:38:35.587Z,4.30
2022-07-26T14:41:11.040Z,4.40
2022-07-26T14:43:45.576Z,4.70
2022-07-26T14:46:21.227Z,4.70
2022-07-26T14:48:55.783Z,4.10
2022-07-26T14:51:30.324Z,9.20
2022-07-26T14:54:06.599Z,4.00
2022-07-26T14:56:41.346Z,4.90
2022-07-26T14:59:21.805Z,4.90
2022-07-26T15:01:59.510Z,5.40
2022-07-26T15:04:36.811Z,4.60
2022-07-26T15:07:11.436Z,3.80
2022-07-26T15:09:46.250Z,6.10
2022-07-26T15:12:21.178Z,3.80
2022-07-26T15:14:55.310Z,4.90
2022-07-26T15:17:30.277Z,6.20
2022-07-26T15:20:05.761Z,4.90
2022-07-26T15:22:40.382Z,3.90
2022-07-26T15:25:15.421Z,4.80
2022-07-26T15:27:49.541Z,4.60
2022-07-26T15:30:24.019Z,4.10
2022-07-26T15:33:03.100Z,3.30
2022-07-26T15:35:38.972Z,4.20
2022-07-26T15:38:13.567Z,3.60
2022-07-26T15:40:47.751Z,4.40
2022-07-26T15:43:46.757Z,3.90
2022-07-26T15:46:21.373Z,4.60
2022-07-26T15:48:57.644Z,3.60
2022-07-26T15:51:32.133Z,4.40
2022-07-26T15:54:10.071Z,3.30
2022-07-26T15:56:45.138Z,3.40
2022-07-26T15:59:21.752Z,4.40
2022-07-26T16:01:55.974Z,2.70
2022-07-26T16:04:29.983Z,3.90
2022-07-26T16:07:04.340Z,3.00
2022-07-26T16:09:38.778Z,3.20
2022-07-26T16:12:13.648Z,3.40
2022-07-26T16:14:47.884Z,5.10
2022-07-26T16:17:22.354Z,3.10
2022-07-26T16:19:58.043Z,3.40
2022-07-26T16:22:33.182Z,3.80
2022-07-26T16:25:09.474Z,3.40
2022-07-26T16:27:44.674Z,4.40
2022-07-26T16:30:19.692Z,3.60
2022-07-26T16:32:53.809Z,4.00
2022-07-26T16:35:27.839Z,5.80
2022-07-26T16:38:02.290Z,9.90
2022-07-26T16:40:36.681Z,5.20
2022-07-26T16:43:11.861Z,3.90
2022-07-26T16:45:50.447Z,3.40
2022-07-26T16:48:27.302Z,4.90
2022-07-26T16:51:03.159Z,4.70
2022-07-26T16:53:38.511Z,4.80
2022-07-26T16:56:52.348Z,3.80
2022-07-26T16:59:54.721Z,4.00
2022-07-26T17:02:29.395Z,4.10
2022-07-26T17:05:04.222Z,3.10
2022-07-26T17:07:42.495Z,3.60
2022-07-26T17:10:16.687Z,4.40
2022-07-26T17:12:50.818Z,5.10
2022-07-26T17:15:24.905Z,5.30
2022-07-26T17:17:58.943Z,5.30
2022-07-26T17:20:32.922Z,3.70
2022-07-26T17:23:06.950Z,5.30
2022-07-26T17:25:41.361Z,4.30
2022-07-26T17:28:15.817Z,4.70
2022-07-26T17:30:49.794Z,3.90
2022-07-26T17:33:23.885Z,2.80
2022-07-26T17:35:58.791Z,5.10
2022-07-26T17:38:40.822Z,4.50
2022-07-26T17:41:20.125Z,2.80
2022-07-26T17:43:55.450Z,2.80
2022-07-26T17:46:32.612Z,4.80
2022-07-26T17:49:07.588Z,5.90
2022-07-26T17:51:42.896Z,6.40
2022-07-26T17:54:18.311Z,4.70
2022-07-26T17:56:52.371Z,5.40
2022-07-26T17:59:29.361Z,7.40
2022-07-26T18:02:03.220Z,2.20
2022-07-26T18:04:37.448Z,2.50
2022-07-26T18:07:11.502Z,2.40
2022-07-26T18:09:45.619Z,2.90
2022-07-26T18:12:19.559Z,3.20
2022-07-26T18:14:53.582Z,3.40
2022-07-26T18:17:27.803Z,4.00
2022-07-26T18:20:04.253Z,3.40
2022-07-26T18:22:39.214Z,3.30
2022-07-26T18:25:14.307Z,3.10
2022-07-26T18:27:48.359Z,3.30
2022-07-26T18:30:22.716Z,2.60
2022-07-26T18:32:56.815Z,4.40
2022-07-26T18:35:31.548Z,2.80
2022-07-26T18:38:06.850Z,8.00
2022-07-26T18:40:41.008Z,7.00
2022-07-26T18:43:15.302Z,7.40
2022-07-26T18:45:50.538Z,3.80
2022-07-26T18:48:24.679Z,6.30
2022-07-26T18:50:58.764Z,5.10
2022-07-26T18:53:33.211Z,4.30
2022-07-26T18:56:08.211Z,6.80
2022-07-26T18:58:43.166Z,4.70
2022-07-26T19:01:18.696Z,3.40
2022-07-26T19:03:53.193Z,8.00
2022-07-26T19:06:28.102Z,3.80
2022-07-26T19:09:06.069Z,3.70
2022-07-26T19:11:40.482Z,5.40
2022-07-26T19:14:14.962Z,4.60
2022-07-26T19:16:50.406Z,6.80
2022-07-26T19:19:24.518Z,6.70
2022-07-26T19:21:59.729Z,4.60
2022-07-26T19:24:48.844Z,7.10
2022-07-26T19:27:24.079Z,4.60
2022-07-26T19:29:58.768Z,6.60
2022-07-26T19:32:33.785Z,7.90
2022-07-26T19:35:12.010Z,5.20
2022-07-26T19:37:49.483Z,3.30
2022-07-26T19:40:23.720Z,4.90
2022-07-26T19:42:59.628Z,4.40
2022-07-26T19:45:33.774Z,6.10
2022-07-26T19:48:09.227Z,6.00
2022-07-26T19:50:43.988Z,2.70
2022-07-26T19:53:18.468Z,5.20
2022-07-26T19:55:53.092Z,5.00
2022-07-26T19:58:27.994Z,5.00
2022-07-26T20:01:02.792Z,6.60
2022-07-26T20:03:39.372Z,6.10
2022-07-26T20:06:18.068Z,4.40
2022-07-26T20:08:53.423Z,4.60
2022-07-26T20:11:31.782Z,7.40
2022-07-26T20:14:06.896Z,5.30
2022-07-26T20:16:42.202Z,4.70
2022-07-26T20:19:16.561Z,6.20
2022-07-26T20:21:51.418Z,4.50
2022-07-26T20:24:25.897Z,4.60
2022-07-26T20:27:00.187Z,12.70
2022-07-26T20:29:35.430Z,3.60
2022-07-26T20:32:11.094Z,3.90
2022-07-26T20:34:45.391Z,5.40
2022-07-26T20:37:21.566Z,3.60
2022-07-26T20:39:56.238Z,4.10
2022-07-26T20:42:31.210Z,3.10
2022-07-26T20:45:06.459Z,4.00
2022-07-26T20:47:46.112Z,5.00
2022-07-26T20:50:21.014Z,5.60
2022-07-26T20:52:55.169Z,4.50
2022-07-26T20:55:29.834Z,5.10
2022-07-26T20:58:04.583Z,6.60
2022-07-26T21:00:38.874Z,3.70
2022-07-26T21:03:14.028Z,6.30
2022-07-26T21:05:49.170Z,4.20
2022-07-26T21:08:23.667Z,10.30
2022-07-26T21:10:57.690Z,4.60
2022-07-26T21:13:35.558Z,5.30
2022-07-26T21:16:10.695Z,5.10
2022-07-26T21:18:45.489Z,5.60
2022-07-26T21:21:28.211Z,6.30
2022-07-26T21:24:02.797Z,4.10
2022-07-26T21:26:37.459Z,5.50
2022-07-26T21:29:11.888Z,5.90
2022-07-26T21:31:46.369Z,4.10
2022-07-26T21:34:20.597Z,8.80
2022-07-26T21:36:55.379Z,3.30
2022-07-26T21:39:29.316Z,3.50
2022-07-26T21:42:04.824Z,3.40
2022-07-26T21:44:39.094Z,4.00
2022-07-26T21:47:13.444Z,3.00
2022-07-26T21:49:48.059Z,3.20
2022-07-26T21:52:22.275Z,3.40
2022-07-26T21:54:56.388Z,2.40
2022-07-26T21:57:30.382Z,2.90
2022-07-26T22:00:04.533Z,2.60
2022-07-26T22:02:40.834Z,3.60
2022-07-26T22:05:32.835Z,3.50
2022-07-26T22:08:09.057Z,2.60
2022-07-26T22:10:45.927Z,4.00
2022-07-26T22:13:20.934Z,3.50
2022-07-26T22:15:55.577Z,3.80
2022-07-26T22:18:30.438Z,4.70
2022-07-26T22:21:05.256Z,2.90
2022-07-26T22:23:39.390Z,3.50
2022-07-26T22:26:15.340Z,3.70
2022-07-26T22:28:49.884Z,3.40
2022-07-26T22:31:24.390Z,4.20
2022-07-26T22:33:58.457Z,3.50
2022-07-26T22:36:33.136Z,4.90
2022-07-26T22:39:07.237Z,3.80
2022-07-26T22:42:12.582Z,3.10
2022-07-26T22:44:37.453Z,3.50
2022-07-26T22:47:11.725Z,3.20
2022-07-26T22:49:45.817Z,2.70
2022-07-26T22:52:19.858Z,2.80
2022-07-26T22:54:53.758Z,3.60
2022-07-26T22:57:27.726Z,3.50
2022-07-26T23:00:08.721Z,2.60
2022-07-26T23:02:43.027Z,4.50
2022-07-26T23:05:17.217Z,3.60
2022-07-26T23:07:53.441Z,3.30
2022-07-26T23:10:28.006Z,3.80
2022-07-26T23:13:02.285Z,3.70
2022-07-26T23:15:36.393Z,3.00
2022-07-26T23:18:10.546Z,2.80
2022-07-26T23:20:45.131Z,3.20
2022-07-26T23:23:19.119Z,5.70
2022-07-26T23:25:52.946Z,5.00
2022-07-26T23:28:36.714Z,4.00
2022-07-26T23:31:14.655Z,3.10
2022-07-26T23:33:51.357Z,6.60
2022-07-26T23:36:30.538Z,4.30
2022-07-26T23:39:05.001Z,3.20
2022-07-26T23:41:39.018Z,4.00
2022-07-26T23:44:13.090Z,4.30
2022-07-26T23:46:47.060Z,3.50
2022-07-26T23:49:21.067Z,4.00
2022-07-26T23:51:55.033Z,4.80
2022-07-26T23:54:29.042Z,3.50
2022-07-26T23:57:03.297Z,3.80
2022-07-26T23:59:37.120Z,5.60
